Time;durP1;ratioP1;P1;durP2;ratioP2;P2;SDS_P1;SDS_P2;PMS_P1;PMS_P2;Temp;Humidity;BMP_temperature;BMP_pressure;BME280_temperature;BME280_humidity;BME280_pressure;Samples;Min_cycle;Max_cycle;Signal;HPM_P1;HPM_P2
2021/06/25 00:02:20;;;;;;;;;;;15.80;99.50;;;;;;5075209;28;19912;-69
2021/06/25 00:04:46;;;;;;;;;;;15.80;98.80;;;;;;5075447;28;19995;-68
2021/06/25 00:07:13;;;;;;;;;;;15.80;98.90;;;;;;5067515;28;19908;-69
2021/06/25 00:09:40;;;;;;;;;;;15.80;98.80;;;;;;5055313;28;20008;-68
2021/06/25 00:12:08;;;;;;;;;;;15.70;99.00;;;;;;5055495;28;19977;-68
2021/06/25 00:14:35;;;;;;;;;;;15.90;98.90;;;;;;5057997;28;20319;-68
2021/06/25 00:17:02;;;;;;;;;;;15.90;98.80;;;;;;5065177;28;20335;-68
2021/06/25 00:19:29;;;;;;;;;;;15.90;98.10;;;;;;5057909;28;19970;-69
2021/06/25 00:21:57;;;;;;;;;;;15.90;98.10;;;;;;5055239;28;19909;-71
2021/06/25 00:24:24;;;;;;;;;;;15.80;97.70;;;;;;5055012;28;19909;-71
2021/06/25 00:26:51;;;;;;;;;;;15.80;98.90;;;;;;5054922;28;19990;-71
2021/06/25 00:29:18;;;;;;;;;;;16.00;98.70;;;;;;5055031;28;19916;-71
2021/06/25 00:31:45;;;;;;;;;;;16.10;98.60;;;;;;5053439;28;20302;-71
2021/06/25 00:34:12;;;;;;;;;;;16.10;98.00;;;;;;5055001;28;20002;-71
2021/06/25 00:36:39;;;;;;;;;;;16.20;98.30;;;;;;5054790;28;19913;-71
2021/06/25 00:39:05;;;;;;;;;;;16.10;98.00;;;;;;5054864;28;19974;-71
2021/06/25 00:41:32;;;;;;;;;;;16.10;98.40;;;;;;5054701;28;20321;-71
2021/06/25 00:43:59;;;;;;;;;;;16.40;98.00;;;;;;5054587;28;20003;-71
2021/06/25 00:46:25;;;;;;;;;;;16.40;97.70;;;;;;5054721;28;20347;-71
2021/06/25 00:48:52;;;;;;;;;;;16.30;97.80;;;;;;5054783;28;19909;-71
2021/06/25 00:51:19;;;;;;;;;;;16.30;96.90;;;;;;5054807;28;19955;-71
2021/06/25 00:53:45;;;;;;;;;;;16.20;96.90;;;;;;5054459;28;19944;-72
2021/06/25 00:56:12;;;;;;;;;;;16.10;97.00;;;;;;5054459;28;19916;-71
2021/06/25 00:58:40;;;;;;;;;;;15.90;97.40;;;;;;5054686;28;19955;-70
2021/06/25 01:01:06;;;;;;;;;;;16.00;98.00;;;;;;5054485;28;20274;-71
2021/06/25 01:03:34;;;;;;;;;;;16.00;97.40;;;;;;5053252;28;19971;-71
2021/06/25 01:06:00;;;;;;;;;;;16.20;97.20;;;;;;5054486;28;19909;-70
2021/06/25 01:08:27;;;;;;;;;;;16.40;97.00;;;;;;5054286;28;20500;-71
2021/06/25 01:10:54;;;;;;;;;;;16.50;97.20;;;;;;5054165;28;19908;-71
2021/06/25 01:13:21;;;;;;;;;;;16.80;96.70;;;;;;5052601;28;19923;-71
2021/06/25 01:15:48;;;;;;;;;;;17.00;97.20;;;;;;5054154;28;19928;-71
2021/06/25 01:18:15;;;;;;;;;;;17.10;95.90;;;;;;5054122;28;19962;-71
2021/06/25 01:20:41;;;;;;;;;;;17.10;96.00;;;;;;5053933;28;19909;-71
2021/06/25 01:23:08;;;;;;;;;;;17.10;96.40;;;;;;5054008;28;19920;-71
2021/06/25 01:25:36;;;;;;;;;;;17.30;95.90;;;;;;5053781;28;19931;-71
2021/06/25 01:28:04;;;;;;;;;;;17.10;96.10;;;;;;5053860;28;19992;-71
2021/06/25 01:30:32;;;;;;;;;;;17.00;96.50;;;;;;5053908;28;19908;-71
2021/06/25 01:33:00;;;;;;;;;;;17.10;96.90;;;;;;5053807;28;19909;-71
2021/06/25 01:35:27;;;;;;;;;;;17.10;96.40;;;;;;5053795;28;19909;-71
2021/06/25 01:37:53;;;;;;;;;;;17.20;97.10;;;;;;5053461;28;19917;-71
2021/06/25 01:40:20;;;;;;;;;;;17.10;96.70;;;;;;5053680;28;20354;-71
2021/06/25 01:42:47;;;;;;;;;;;17.10;96.30;;;;;;5053661;28;19909;-71
2021/06/25 01:45:16;;;;;;;;;;;17.00;97.00;;;;;;5053613;28;19991;-72
2021/06/25 01:47:43;;;;;;;;;;;16.80;96.70;;;;;;5053509;28;19992;-71
2021/06/25 01:50:12;;;;;;;;;;;16.70;96.80;;;;;;5053639;28;19940;-71
2021/06/25 01:52:43;;;;;;;;;;;16.70;97.30;;;;;;5053249;28;19915;-72
2021/06/25 01:55:10;;;;;;;;;;;16.70;97.40;;;;;;5053499;28;19913;-71
2021/06/25 01:57:37;;;;;;;;;;;16.70;96.90;;;;;;5053048;28;19924;-71
2021/06/25 02:00:04;;;;;;;;;;;16.90;96.90;;;;;;5052049;28;19908;-69
2021/06/25 02:02:31;;;;;;;;;;;16.80;96.30;;;;;;5053330;28;19916;-69
2021/06/25 02:04:57;;;;;;;;;;;16.80;96.50;;;;;;5053264;28;19954;-69
2021/06/25 02:07:24;;;;;;;;;;;16.90;97.30;;;;;;5053083;28;20000;-68
2021/06/25 02:09:51;;;;;;;;;;;17.20;96.00;;;;;;5053008;28;19975;-69
2021/06/25 02:12:17;;;;;;;;;;;17.10;96.50;;;;;;5053152;28;20322;-69
2021/06/25 02:14:44;;;;;;;;;;;17.00;96.20;;;;;;5052904;28;19982;-69
2021/06/25 02:17:11;;;;;;;;;;;16.90;96.70;;;;;;5052988;28;19972;-68
2021/06/25 02:19:37;;;;;;;;;;;16.80;96.70;;;;;;5052968;28;20375;-70
2021/06/25 02:22:04;;;;;;;;;;;16.80;96.30;;;;;;5052804;28;19916;-69
2021/06/25 02:24:31;;;;;;;;;;;16.70;96.80;;;;;;5053066;28;19909;-68
2021/06/25 02:26:57;;;;;;;;;;;16.70;97.30;;;;;;5053104;28;20394;-68
2021/06/25 02:29:25;;;;;;;;;;;16.80;96.90;;;;;;5053101;28;19908;-69
2021/06/25 02:31:52;;;;;;;;;;;16.80;97.30;;;;;;5052717;28;20011;-74
2021/06/25 02:34:19;;;;;;;;;;;16.90;96.40;;;;;;5052763;28;19913;-71
2021/06/25 02:36:46;;;;;;;;;;;16.80;96.50;;;;;;5052731;28;19924;-71
2021/06/25 02:39:16;;;;;;;;;;;16.70;96.90;;;;;;5053033;28;19909;-71
2021/06/25 02:41:42;;;;;;;;;;;16.80;97.00;;;;;;5052529;28;19916;-71
2021/06/25 02:44:09;;;;;;;;;;;17.00;96.10;;;;;;5053008;28;20382;-72
2021/06/25 02:46:36;;;;;;;;;;;16.90;96.00;;;;;;5052773;28;19909;-71
2021/06/25 02:49:03;;;;;;;;;;;16.90;96.20;;;;;;5052638;28;19909;-70
2021/06/25 02:51:30;;;;;;;;;;;16.90;97.00;;;;;;5052601;28;19915;-71
2021/06/25 02:53:56;;;;;;;;;;;16.90;96.40;;;;;;5052642;28;19909;-69
2021/06/25 02:56:23;;;;;;;;;;;16.90;96.60;;;;;;5052689;28;19912;-70
2021/06/25 02:58:50;;;;;;;;;;;17.00;96.70;;;;;;5052667;28;19912;-69
2021/06/25 03:01:16;;;;;;;;;;;17.20;95.90;;;;;;5052584;28;19909;-70
2021/06/25 03:03:43;;;;;;;;;;;17.10;95.90;;;;;;5052314;28;20268;-69
2021/06/25 03:06:10;;;;;;;;;;;17.10;96.10;;;;;;5052486;28;19916;-67
2021/06/25 03:08:36;;;;;;;;;;;17.10;95.10;;;;;;5052763;28;19908;-68
2021/06/25 03:11:03;;;;;;;;;;;17.30;95.50;;;;;;5052874;28;19909;-68
2021/06/25 03:13:30;;;;;;;;;;;17.30;93.90;;;;;;5052647;28;19927;-67
2021/06/25 03:15:56;;;;;;;;;;;17.30;92.80;;;;;;5052534;28;19908;-71
2021/06/25 03:18:23;;;;;;;;;;;17.30;92.80;;;;;;5052466;28;20015;-71
2021/06/25 03:20:50;;;;;;;;;;;17.40;92.90;;;;;;5052280;28;20351;-70
2021/06/25 03:23:17;;;;;;;;;;;17.40;92.60;;;;;;5052521;28;19909;-71
2021/06/25 03:25:44;;;;;;;;;;;17.40;91.80;;;;;;5052401;28;19947;-70
2021/06/25 03:28:11;;;;;;;;;;;17.40;92.10;;;;;;5055929;28;20347;-70
2021/06/25 03:30:37;;;;;;;;;;;17.30;92.30;;;;;;5056166;28;20043;-72
2021/06/25 03:33:04;;;;;;;;;;;17.40;92.70;;;;;;5056039;28;19916;-70
2021/06/25 03:35:31;;;;;;;;;;;17.50;91.80;;;;;;5055753;28;20333;-71
2021/06/25 03:37:58;;;;;;;;;;;17.50;92.00;;;;;;5055851;28;20320;-70
2021/06/25 03:40:25;;;;;;;;;;;17.50;91.20;;;;;;5055886;28;19963;-71
2021/06/25 03:42:52;;;;;;;;;;;17.50;91.80;;;;;;5055682;28;20370;-71
2021/06/25 03:45:18;;;;;;;;;;;17.70;91.40;;;;;;5055662;28;19917;-71
2021/06/25 03:47:45;;;;;;;;;;;17.60;91.10;;;;;;5055555;28;20321;-71
2021/06/25 03:50:12;;;;;;;;;;;17.50;91.10;;;;;;5055697;28;20363;-72
2021/06/25 03:52:39;;;;;;;;;;;17.50;91.20;;;;;;5055600;28;19963;-69
2021/06/25 03:55:09;;;;;;;;;;;17.50;90.90;;;;;;5055340;28;19916;-71
2021/06/25 03:57:36;;;;;;;;;;;17.40;91.40;;;;;;5055393;28;20256;-68
2021/06/25 04:00:04;;;;;;;;;;;17.40;90.60;;;;;;5055603;28;19913;-68
2021/06/25 04:02:31;;;;;;;;;;;17.30;90.90;;;;;;5055416;28;19908;-70
2021/06/25 04:04:57;;;;;;;;;;;17.40;90.50;;;;;;5055498;28;20007;-70
2021/06/25 04:07:26;;;;;;;;;;;17.40;90.10;;;;;;5055257;28;20267;-70
2021/06/25 04:09:54;;;;;;;;;;;17.30;90.20;;;;;;5055078;28;20279;-71
2021/06/25 04:12:21;;;;;;;;;;;17.30;90.80;;;;;;5055317;28;19920;-71
2021/06/25 04:14:47;;;;;;;;;;;17.40;90.00;;;;;;5055286;28;19944;-70
2021/06/25 04:17:14;;;;;;;;;;;17.40;90.80;;;;;;5055050;28;20027;-71
2021/06/25 04:19:40;;;;;;;;;;;17.40;89.10;;;;;;5054938;28;19909;-70
2021/06/25 04:22:07;;;;;;;;;;;17.40;90.20;;;;;;5055011;28;19916;-70
2021/06/25 04:24:34;;;;;;;;;;;17.40;90.40;;;;;;5055035;28;20325;-71
2021/06/25 04:27:00;;;;;;;;;;;17.40;89.90;;;;;;5055129;28;19993;-71
2021/06/25 04:29:27;;;;;;;;;;;17.40;90.10;;;;;;5054998;28;19931;-70
2021/06/25 04:31:55;;;;;;;;;;;17.40;89.50;;;;;;5054797;28;20367;-70
2021/06/25 04:34:21;;;;;;;;;;;17.40;90.00;;;;;;5054899;28;19940;-71
2021/06/25 04:36:48;;;;;;;;;;;17.40;88.70;;;;;;5054637;28;19916;-69
2021/06/25 04:39:15;;;;;;;;;;;17.30;89.40;;;;;;5054567;28;19944;-70
2021/06/25 04:41:41;;;;;;;;;;;17.30;90.30;;;;;;5054583;28;20362;-71
2021/06/25 04:44:08;;;;;;;;;;;17.30;89.80;;;;;;5054959;28;19913;-71
2021/06/25 04:46:35;;;;;;;;;;;17.40;90.60;;;;;;5054963;28;19909;-70
2021/06/25 04:49:02;;;;;;;;;;;17.40;90.50;;;;;;5054718;28;20330;-71
2021/06/25 04:51:28;;;;;;;;;;;17.40;90.40;;;;;;5054520;28;19966;-71
2021/06/25 04:53:55;;;;;;;;;;;17.30;89.70;;;;;;5054447;28;20000;-71
2021/06/25 04:56:22;;;;;;;;;;;17.30;90.30;;;;;;5054480;28;19909;-71
2021/06/25 04:58:48;;;;;;;;;;;17.30;90.20;;;;;;5054598;28;19917;-71
2021/06/25 05:01:15;;;;;;;;;;;17.30;90.40;;;;;;5054407;28;20322;-70
2021/06/25 05:03:42;;;;;;;;;;;17.30;89.40;;;;;;5054185;28;19916;-71
2021/06/25 05:06:09;;;;;;;;;;;17.30;89.50;;;;;;5054078;28;19944;-70
2021/06/25 05:08:35;;;;;;;;;;;17.20;89.90;;;;;;5054194;28;19999;-71
2021/06/25 05:11:02;;;;;;;;;;;17.20;89.70;;;;;;5054224;28;20378;-71
2021/06/25 05:13:29;;;;;;;;;;;17.30;90.90;;;;;;5053913;28;19920;-71
2021/06/25 05:15:56;;;;;;;;;;;17.20;90.10;;;;;;5054234;28;19954;-69
2021/06/25 05:18:23;;;;;;;;;;;17.20;90.10;;;;;;5054012;28;20317;-70
2021/06/25 05:20:51;;;;;;;;;;;17.20;90.20;;;;;;5053760;28;19908;-69
2021/06/25 05:23:18;;;;;;;;;;;17.20;90.00;;;;;;5052699;28;19908;-70
2021/06/25 05:25:45;;;;;;;;;;;17.20;90.10;;;;;;5053778;28;20275;-68
2021/06/25 05:28:13;;;;;;;;;;;17.10;91.00;;;;;;5053953;28;19916;-68
2021/06/25 05:30:39;;;;;;;;;;;17.10;90.50;;;;;;5054081;28;19940;-68
2021/06/25 05:33:07;;;;;;;;;;;17.10;90.30;;;;;;5053952;28;20256;-68
2021/06/25 05:35:34;;;;;;;;;;;17.10;90.50;;;;;;5053427;28;19963;-68
2021/06/25 05:38:01;;;;;;;;;;;17.10;90.60;;;;;;5056298;28;19979;-67
2021/06/25 05:40:28;;;;;;;;;;;17.10;90.60;;;;;;5062487;28;20427;-67
2021/06/25 05:42:55;;;;;;;;;;;17.10;90.50;;;;;;5053635;28;19915;-69
2021/06/25 05:45:22;;;;;;;;;;;17.20;87.90;;;;;;5068405;28;20454;-66
2021/06/25 05:47:48;;;;;;;;;;;17.30;86.20;;;;;;5073496;28;20282;-67
2021/06/25 05:50:19;;;;;;;;;;;17.30;89.00;;;;;;5072871;28;19936;-68
2021/06/25 05:52:46;;;;;;;;;;;17.30;86.90;;;;;;5073552;28;20287;-68
2021/06/25 05:55:13;;;;;;;;;;;17.20;86.30;;;;;;5073330;28;20306;-67
2021/06/25 05:57:40;;;;;;;;;;;17.20;85.70;;;;;;5073169;28;19921;-67
2021/06/25 06:00:07;;;;;;;;;;;17.20;86.70;;;;;;5073429;28;19999;-67
2021/06/25 06:02:34;;;;;;;;;;;17.20;87.60;;;;;;5073301;28;20000;-67
2021/06/25 06:05:01;;;;;;;;;;;17.10;85.90;;;;;;5073402;28;19908;-69
2021/06/25 06:07:27;;;;;;;;;;;17.00;86.40;;;;;;5073215;28;19916;-70
2021/06/25 06:09:54;;;;;;;;;;;17.00;85.70;;;;;;5072985;28;19913;-70
2021/06/25 06:12:21;;;;;;;;;;;16.90;88.50;;;;;;5073053;28;19916;-69
2021/06/25 06:14:49;;;;;;;;;;;17.00;87.80;;;;;;5073035;28;19967;-71
2021/06/25 06:17:20;;;;;;;;;;;17.00;87.20;;;;;;5073052;28;19916;-70
2021/06/25 06:19:51;;;;;;;;;;;16.90;88.90;;;;;;5072961;28;20343;-70
2021/06/25 06:33:23;;;;;;;;;;;16.80;87.10;;;;;;5073100;28;20007;-70
2021/06/25 06:35:50;;;;;;;;;;;16.80;86.70;;;;;;5072646;28;20363;-68
2021/06/25 06:38:17;;;;;;;;;;;16.70;86.30;;;;;;5072813;28;19928;-68
2021/06/25 06:40:44;;;;;;;;;;;16.70;85.20;;;;;;5072979;28;19908;-70
2021/06/25 06:43:11;;;;;;;;;;;16.80;85.20;;;;;;5071586;28;19909;-70
2021/06/25 06:45:38;;;;;;;;;;;16.80;84.40;;;;;;5072656;28;19909;-69
2021/06/25 06:48:05;;;;;;;;;;;16.70;83.70;;;;;;5072692;28;19916;-70
2021/06/25 06:50:32;;;;;;;;;;;16.60;83.30;;;;;;5072663;28;20473;-70
2021/06/25 06:52:58;;;;;;;;;;;16.60;84.10;;;;;;5071553;28;19908;-68
2021/06/25 06:55:25;;;;;;;;;;;16.60;84.40;;;;;;5071501;28;20358;-70
2021/06/25 06:57:52;;;;;;;;;;;16.50;85.30;;;;;;5072407;28;20286;-69
2021/06/25 07:00:19;;;;;;;;;;;16.40;84.90;;;;;;5072722;28;19999;-69
2021/06/25 07:02:46;;;;;;;;;;;16.40;85.20;;;;;;5075666;28;19908;-69
2021/06/25 07:05:14;;;;;;;;;;;16.30;86.00;;;;;;5076426;28;19932;-70
2021/06/25 07:07:41;;;;;;;;;;;16.30;85.30;;;;;;5076543;28;19922;-70
2021/06/25 07:10:08;;;;;;;;;;;16.30;86.00;;;;;;5076688;28;19908;-69
2021/06/25 07:12:36;;;;;;;;;;;16.30;87.00;;;;;;5076644;28;20282;-70
2021/06/25 07:15:04;;;;;;;;;;;16.30;86.20;;;;;;5076159;28;20333;-68
2021/06/25 07:17:31;;;;;;;;;;;16.30;86.70;;;;;;5076190;28;19916;-69
2021/06/25 07:19:57;;;;;;;;;;;16.20;89.70;;;;;;5058310;28;19908;-69
2021/06/25 07:22:25;;;;;;;;;;;16.20;88.00;;;;;;5076384;28;19908;-70
2021/06/25 07:24:52;;;;;;;;;;;16.10;87.20;;;;;;5076608;28;19914;-70
2021/06/25 07:27:19;;;;;;;;;;;16.10;89.30;;;;;;5076127;28;20294;-71
2021/06/25 07:29:45;;;;;;;;;;;16.10;89.40;;;;;;5076182;28;19948;-68
2021/06/25 07:32:12;;;;;;;;;;;16.10;89.00;;;;;;5075896;28;19908;-69
2021/06/25 07:34:39;;;;;;;;;;;16.00;90.00;;;;;;5075795;28;20251;-70
2021/06/25 07:37:06;;;;;;;;;;;16.00;88.90;;;;;;5075968;28;19919;-69
2021/06/25 07:39:32;;;;;;;;;;;16.10;90.00;;;;;;5075173;28;20379;-69
2021/06/25 07:41:59;;;;;;;;;;;16.00;90.00;;;;;;5056049;28;19924;-69
2021/06/25 07:44:25;;;;;;;;;;;16.00;90.50;;;;;;5053858;28;19935;-69
2021/06/25 07:46:52;;;;;;;;;;;16.00;89.60;;;;;;5053861;28;19913;-70
2021/06/25 07:49:19;;;;;;;;;;;16.00;90.30;;;;;;5053438;28;19919;-69
2021/06/25 07:51:45;;;;;;;;;;;16.00;90.20;;;;;;5053729;28;19931;-68
2021/06/25 07:54:12;;;;;;;;;;;15.90;91.20;;;;;;5053626;28;20342;-69
2021/06/25 07:56:39;;;;;;;;;;;15.90;90.70;;;;;;5053763;28;19916;-70
2021/06/25 07:59:05;;;;;;;;;;;15.90;90.00;;;;;;5053720;28;19916;-71
2021/06/25 08:01:33;;;;;;;;;;;15.90;90.30;;;;;;5053495;28;19913;-71
2021/06/25 08:04:00;;;;;;;;;;;15.90;90.90;;;;;;5053607;28;19909;-71
2021/06/25 08:06:28;;;;;;;;;;;15.80;90.70;;;;;;5053007;28;19912;-71
2021/06/25 08:08:54;;;;;;;;;;;15.80;91.20;;;;;;5053385;28;20000;-72
2021/06/25 08:11:21;;;;;;;;;;;15.80;91.10;;;;;;5053433;28;20268;-71
2021/06/25 08:13:48;;;;;;;;;;;15.70;91.30;;;;;;5052257;28;19921;-70
2021/06/25 08:16:14;;;;;;;;;;;15.70;92.20;;;;;;5053163;28;20011;-73
2021/06/25 08:18:41;;;;;;;;;;;15.60;91.80;;;;;;5053130;28;20012;-70
2021/06/25 08:21:08;;;;;;;;;;;15.60;91.70;;;;;;5052711;28;19936;-70
2021/06/25 08:23:35;;;;;;;;;;;15.40;92.40;;;;;;5052850;28;20330;-70
2021/06/25 08:26:01;;;;;;;;;;;15.40;93.50;;;;;;5053131;28;19922;-69
2021/06/25 08:28:28;;;;;;;;;;;15.40;92.00;;;;;;5052886;28;19909;-70
2021/06/25 08:30:55;;;;;;;;;;;15.30;92.00;;;;;;5053088;28;19916;-68
2021/06/25 08:33:22;;;;;;;;;;;15.30;92.40;;;;;;5052562;28;19915;-68
2021/06/25 08:35:49;;;;;;;;;;;15.30;92.00;;;;;;5052595;28;19913;-68
2021/06/25 08:38:15;;;;;;;;;;;15.30;92.20;;;;;;5052777;28;19917;-66
2021/06/25 08:40:42;;;;;;;;;;;15.30;91.90;;;;;;5052970;28;19915;-68
2021/06/25 08:43:09;;;;;;;;;;;15.30;92.20;;;;;;5052808;28;19916;-68
2021/06/25 08:45:35;;;;;;;;;;;15.20;92.00;;;;;;5052264;28;19913;-68
2021/06/25 08:48:03;;;;;;;;;;;15.20;92.60;;;;;;5052804;28;19932;-67
2021/06/25 08:50:36;;;;;;;;;;;15.20;92.90;;;;;;5052870;28;19983;-69
2021/06/25 08:53:03;;;;;;;;;;;15.20;92.90;;;;;;5052892;28;19912;-70
2021/06/25 08:55:29;;;;;;;;;;;15.20;92.30;;;;;;5052623;28;20422;-71
2021/06/25 08:57:56;;;;;;;;;;;15.20;92.10;;;;;;5052411;28;20609;-70
2021/06/25 09:00:23;;;;;;;;;;;15.20;92.00;;;;;;5052251;28;20389;-71
2021/06/25 09:02:50;;;;;;;;;;;15.10;91.90;;;;;;5066321;28;19922;-71
2021/06/25 09:05:22;;;;;;;;;;;15.10;91.50;;;;;;5071456;28;19908;-70
2021/06/25 09:07:50;;;;;;;;;;;15.10;91.70;;;;;;5074241;28;19931;-70
2021/06/25 09:10:27;;;;;;;;;;;15.10;91.70;;;;;;5073703;28;19922;-71
2021/06/25 09:13:01;;;;;;;;;;;15.20;91.60;;;;;;5073696;28;19962;-70
2021/06/25 09:15:30;;;;;;;;;;;15.20;92.00;;;;;;5074280;28;19925;-71
2021/06/25 09:17:58;;;;;;;;;;;15.10;92.50;;;;;;5074067;28;20314;-70
2021/06/25 09:20:30;;;;;;;;;;;15.10;92.10;;;;;;5073870;28;19908;-70
2021/06/25 09:22:57;;;;;;;;;;;15.10;93.30;;;;;;5074238;28;20322;-69
2021/06/25 09:25:24;;;;;;;;;;;15.10;92.50;;;;;;5072568;28;19908;-71
2021/06/25 09:27:58;;;;;;;;;;;15.00;92.60;;;;;;5073820;28;19999;-70
2021/06/25 09:30:26;;;;;;;;;;;15.00;92.60;;;;;;5073898;28;19952;-70
2021/06/25 09:32:53;;;;;;;;;;;15.00;92.60;;;;;;5073515;28;20255;-71
2021/06/25 09:35:21;;;;;;;;;;;15.00;93.00;;;;;;5073779;28;19920;-68
2021/06/25 09:37:49;;;;;;;;;;;15.00;92.80;;;;;;5073656;28;20118;-70
2021/06/25 09:40:17;;;;;;;;;;;15.00;93.00;;;;;;5072797;28;19915;-71
2021/06/25 09:42:45;;;;;;;;;;;15.00;93.40;;;;;;5073390;28;19931;-71
2021/06/25 09:45:19;;;;;;;;;;;14.90;93.80;;;;;;5073606;28;19908;-70
2021/06/25 09:47:55;;;;;;;;;;;14.90;93.30;;;;;;5073177;28;19908;-69
2021/06/25 09:50:23;;;;;;;;;;;14.90;94.00;;;;;;5072216;28;19991;-70
2021/06/25 09:52:53;;;;;;;;;;;14.90;94.50;;;;;;5073615;28;19915;-71
2021/06/25 09:55:22;;;;;;;;;;;14.80;94.40;;;;;;5072304;28;20010;-71
2021/06/25 10:03:38;;;;;;;;;;;14.70;94.80;;;;;;5073407;28;20314;-68
2021/06/25 10:06:09;;;;;;;;;;;14.70;94.40;;;;;;5073420;28;19962;-69
2021/06/25 10:08:36;;;;;;;;;;;14.70;94.30;;;;;;5073454;28;19912;-70
2021/06/25 10:11:05;;;;;;;;;;;14.70;94.50;;;;;;5073441;28;19978;-68
2021/06/25 10:13:35;;;;;;;;;;;14.70;95.00;;;;;;5072808;28;19916;-70
2021/06/25 10:16:05;;;;;;;;;;;14.70;94.90;;;;;;5073143;28;20355;-68
2021/06/25 10:18:37;;;;;;;;;;;14.60;94.50;;;;;;5073191;28;20042;-69
2021/06/25 10:21:04;;;;;;;;;;;14.70;95.00;;;;;;5073169;28;19909;-67
2021/06/25 10:23:36;;;;;;;;;;;14.60;95.20;;;;;;5073078;28;19908;-69
2021/06/25 10:26:07;;;;;;;;;;;14.60;95.30;;;;;;5073136;28;19908;-70
2021/06/25 10:28:37;;;;;;;;;;;14.60;95.40;;;;;;5073274;28;19908;-69
2021/06/25 10:31:05;;;;;;;;;;;14.60;95.40;;;;;;5073006;28;19909;-70
2021/06/25 10:33:32;;;;;;;;;;;14.60;94.70;;;;;;5072623;28;19991;-69
2021/06/25 10:35:59;;;;;;;;;;;14.60;94.80;;;;;;5072943;28;19915;-71
2021/06/25 10:38:27;;;;;;;;;;;14.60;94.70;;;;;;5072931;28;19916;-68
2021/06/25 10:41:00;;;;;;;;;;;14.60;94.50;;;;;;5073000;28;20278;-67
2021/06/25 10:43:39;;;;;;;;;;;14.60;95.30;;;;;;5072987;28;19994;-68
2021/06/25 10:46:06;;;;;;;;;;;14.60;95.20;;;;;;5072822;28;20279;-69
2021/06/25 10:48:39;;;;;;;;;;;14.60;95.00;;;;;;5072798;28;19915;-68
2021/06/25 10:51:25;;;;;;;;;;;14.60;95.10;;;;;;5072810;28;19915;-69
2021/06/25 10:54:10;;;;;;;;;;;14.60;94.70;;;;;;5072628;28;19908;-68
2021/06/25 10:56:38;;;;;;;;;;;14.50;94.90;;;;;;5072702;28;20537;-70
2021/06/25 10:59:28;;;;;;;;;;;14.50;94.70;;;;;;5072708;28;19912;-67
2021/06/25 11:01:56;;;;;;;;;;;14.50;94.80;;;;;;5072508;28;20535;-68
2021/06/25 11:04:33;;;;;;;;;;;14.50;94.70;;;;;;5072648;28;19909;-68
2021/06/25 11:07:02;;;;;;;;;;;14.50;94.70;;;;;;5054657;28;19916;-67
2021/06/25 11:09:49;;;;;;;;;;;14.50;95.20;;;;;;5052736;28;19954;-69
2021/06/25 11:12:16;;;;;;;;;;;14.50;95.30;;;;;;5050861;28;19957;-68
2021/06/25 11:14:43;;;;;;;;;;;14.50;94.80;;;;;;5051142;28;19927;-67
2021/06/25 11:17:10;;;;;;;;;;;14.40;94.90;;;;;;5052568;28;19925;-69
2021/06/25 11:19:41;;;;;;;;;;;14.40;95.90;;;;;;5052334;28;19916;-66
2021/06/25 11:22:26;;;;;;;;;;;14.40;95.40;;;;;;5052806;28;19916;-68
2021/06/25 11:24:57;;;;;;;;;;;14.40;95.70;;;;;;5052611;28;19909;-68
2021/06/25 11:27:23;;;;;;;;;;;14.40;96.30;;;;;;5052087;28;19909;-68
2021/06/25 11:29:50;;;;;;;;;;;14.40;95.80;;;;;;5052271;28;20235;-68
2021/06/25 11:32:35;;;;;;;;;;;14.40;96.10;;;;;;5052563;28;20395;-68
2021/06/25 11:35:21;;;;;;;;;;;14.30;95.40;;;;;;5052476;28;19909;-68
2021/06/25 11:38:00;;;;;;;;;;;14.30;95.90;;;;;;5052217;28;20066;-66
2021/06/25 11:40:44;;;;;;;;;;;14.30;95.40;;;;;;5052304;28;19981;-69
2021/06/25 11:43:12;;;;;;;;;;;14.20;96.50;;;;;;5052368;28;19995;-69
2021/06/25 11:45:39;;;;;;;;;;;14.20;96.70;;;;;;5052063;28;19912;-70
2021/06/25 11:48:07;;;;;;;;;;;14.20;96.20;;;;;;5053897;28;19909;-68
2021/06/25 11:50:37;;;;;;;;;;;14.20;95.80;;;;;;5055698;28;20260;-69
2021/06/25 11:53:05;;;;;;;;;;;14.10;96.30;;;;;;5055799;28;19916;-69
2021/06/25 11:55:32;;;;;;;;;;;14.20;96.60;;;;;;5055151;28;19935;-68
2021/06/25 11:57:58;;;;;;;;;;;14.20;96.40;;;;;;5055542;28;20378;-68
2021/06/25 12:00:27;;;;;;;;;;;14.10;96.30;;;;;;5055764;28;19908;-69
2021/06/25 12:02:55;;;;;;;;;;;14.10;96.70;;;;;;5055356;28;19912;-69
2021/06/25 12:05:22;;;;;;;;;;;14.00;96.90;;;;;;5055637;28;19948;-69
2021/06/25 12:08:01;;;;;;;;;;;14.00;97.00;;;;;;5055206;28;20291;-68
2021/06/25 12:10:27;;;;;;;;;;;14.00;97.00;;;;;;5055093;28;19916;-71
2021/06/25 12:12:57;;;;;;;;;;;13.90;97.30;;;;;;5055213;28;19909;-68
2021/06/25 12:15:23;;;;;;;;;;;13.80;97.80;;;;;;5055500;28;19909;-71
2021/06/25 12:17:51;;;;;;;;;;;13.80;97.80;;;;;;5054924;28;19928;-71
2021/06/25 12:20:18;;;;;;;;;;;13.80;98.00;;;;;;5055267;28;19909;-68
2021/06/25 12:22:49;;;;;;;;;;;13.80;98.30;;;;;;5055329;28;19932;-70
2021/06/25 12:25:25;;;;;;;;;;;13.90;98.20;;;;;;5054756;28;20339;-71
2021/06/25 12:27:52;;;;;;;;;;;13.80;98.10;;;;;;5054990;28;19916;-70
2021/06/25 12:30:19;;;;;;;;;;;13.90;97.80;;;;;;5055389;28;19913;-71
2021/06/25 12:32:57;;;;;;;;;;;13.90;97.40;;;;;;5055088;28;19913;-71
2021/06/25 12:35:28;;;;;;;;;;;13.90;98.10;;;;;;5055489;28;19944;-71
2021/06/25 12:37:55;;;;;;;;;;;13.90;97.90;;;;;;5055375;28;19970;-71
2021/06/25 12:40:41;;;;;;;;;;;14.00;98.10;;;;;;5054655;28;19909;-70
2021/06/25 12:43:08;;;;;;;;;;;14.00;98.00;;;;;;5055066;28;19908;-72
2021/06/25 12:45:39;;;;;;;;;;;14.00;97.40;;;;;;5054804;28;20098;-71
2021/06/25 12:48:08;;;;;;;;;;;14.10;97.50;;;;;;5054725;28;19950;-71
2021/06/25 12:50:36;;;;;;;;;;;14.00;97.90;;;;;;5054854;28;20367;-71
2021/06/25 12:53:10;;;;;;;;;;;14.00;97.70;;;;;;5054674;28;19944;-71
2021/06/25 12:55:37;;;;;;;;;;;14.00;98.20;;;;;;5072499;28;19919;-71
2021/06/25 12:58:04;;;;;;;;;;;14.00;98.00;;;;;;5071513;28;19942;-71
2021/06/25 13:00:31;;;;;;;;;;;14.10;98.30;;;;;;5071653;28;19940;-71
2021/06/25 13:02:57;;;;;;;;;;;14.10;98.60;;;;;;5072371;28;19988;-69
2021/06/25 13:05:31;;;;;;;;;;;14.10;98.40;;;;;;5072237;28;19953;-69
2021/06/25 13:08:01;;;;;;;;;;;14.10;98.40;;;;;;5072386;28;19909;-71
2021/06/25 13:10:28;;;;;;;;;;;14.00;98.40;;;;;;5070258;28;20272;-69
2021/06/25 13:12:56;;;;;;;;;;;14.00;98.60;;;;;;5072091;28;19909;-70
2021/06/25 13:15:23;;;;;;;;;;;14.00;98.90;;;;;;5072399;28;20428;-68
2021/06/25 13:17:49;;;;;;;;;;;14.00;99.00;;;;;;5071868;28;19916;-68
2021/06/25 13:20:16;;;;;;;;;;;13.90;99.00;;;;;;5071978;28;19909;-70
2021/06/25 13:22:55;;;;;;;;;;;13.90;99.40;;;;;;5071765;28;19916;-70
2021/06/25 13:25:22;;;;;;;;;;;13.90;99.80;;;;;;5071564;28;19912;-69
2021/06/25 13:27:52;;;;;;;;;;;13.90;99.30;;;;;;5071731;28;19919;-68
2021/06/25 13:30:26;;;;;;;;;;;14.00;99.50;;;;;;5071944;28;19999;-71
2021/06/25 13:33:02;;;;;;;;;;;14.00;99.70;;;;;;5071805;28;19999;-71
2021/06/25 13:35:41;;;;;;;;;;;14.00;99.90;;;;;;5071690;28;19913;-71
2021/06/25 13:38:24;;;;;;;;;;;13.90;99.40;;;;;;5071711;28;19924;-70
2021/06/25 13:40:55;;;;;;;;;;;13.90;99.90;;;;;;5071214;28;19974;-70
2021/06/25 13:43:23;;;;;;;;;;;13.80;99.90;;;;;;5071574;28;19939;-70
2021/06/25 13:45:50;;;;;;;;;;;13.70;99.90;;;;;;5071304;28;19950;-70
2021/06/25 13:48:25;;;;;;;;;;;13.70;99.90;;;;;;5071472;28;19908;-71
2021/06/25 13:50:59;;;;;;;;;;;13.70;99.90;;;;;;5071218;28;20370;-70
2021/06/25 13:53:30;;;;;;;;;;;13.70;99.90;;;;;;5071394;28;19909;-71
2021/06/25 13:55:57;;;;;;;;;;;13.70;99.90;;;;;;5070875;28;19908;-68
2021/06/25 13:58:24;;;;;;;;;;;13.70;99.90;;;;;;5071465;28;19977;-69
2021/06/25 14:00:57;;;;;;;;;;;13.70;99.90;;;;;;5071444;28;20451;-68
2021/06/25 14:03:25;;;;;;;;;;;13.70;99.90;;;;;;5070888;28;20551;-68
2021/06/25 14:06:03;;;;;;;;;;;13.70;99.90;;;;;;5070093;28;19988;-70
2021/06/25 14:08:39;;;;;;;;;;;13.80;99.90;;;;;;5052479;28;19909;-69
2021/06/25 14:11:14;;;;;;;;;;;13.70;99.90;;;;;;5050943;28;20023;-70
2021/06/25 14:13:52;;;;;;;;;;;13.80;99.90;;;;;;5050836;28;19932;-69
2021/06/25 14:16:26;;;;;;;;;;;13.80;99.90;;;;;;5050785;28;20018;-70
2021/06/25 14:18:53;;;;;;;;;;;13.80;99.90;;;;;;5051172;28;20436;-68
2021/06/25 14:21:21;;;;;;;;;;;13.80;99.90;;;;;;5051195;28;20007;-70
2021/06/25 14:23:48;;;;;;;;;;;13.90;99.90;;;;;;5051155;28;19908;-70
2021/06/25 14:26:15;;;;;;;;;;;13.90;99.90;;;;;;5051229;28;19909;-68
2021/06/25 14:28:41;;;;;;;;;;;13.90;99.90;;;;;;5050560;28;19909;-68
2021/06/25 14:31:08;;;;;;;;;;;13.90;99.90;;;;;;5051050;28;20402;-70
2021/06/25 14:33:35;;;;;;;;;;;13.90;99.90;;;;;;5049389;28;19999;-71
2021/06/25 14:36:02;;;;;;;;;;;13.90;99.90;;;;;;5050926;28;20016;-71
2021/06/25 14:38:29;;;;;;;;;;;14.00;99.90;;;;;;5050859;28;19924;-71
2021/06/25 14:40:56;;;;;;;;;;;13.90;99.90;;;;;;5050670;28;20264;-70